Terminal Aerodrome Forecast
Issued by NWS Shreveport, LA

Home | Current Version | Previous Version | Text Only | Print | Product List | Glossary On
Versions: 1 2 3 4 5 6 7 8 9 10 11 12 13 14
672
FTUS44 KSHV 251721
TAFGGG
TAF
KGGG 251721Z 2518/2618 29010KT P6SM SCT060 BKN250
     FM260000 32012KT P6SM VCSH OVC015
     FM260300 31011KT P6SM OVC025
     FM260600 28006KT P6SM SKC
     FM261400 31006KT P6SM SKC=

USA.gov is the U.S. government's official web portal to all federal, state and local government web resources and services.